sensor_id;sensor_type;location;lat;lon;timestamp;P1;durP1;ratioP1;P2;durP2;ratioP2
39264;SDS011;42646;51.910;7.724;2022-09-24T00:01:29;8.90;;;6.10;;
39264;SDS011;42646;51.910;7.724;2022-09-24T00:03:59;9.27;;;6.18;;
39264;SDS011;42646;51.910;7.724;2022-09-24T00:06:32;7.88;;;5.82;;
39264;SDS011;42646;51.910;7.724;2022-09-24T00:09:02;9.38;;;6.15;;
39264;SDS011;42646;51.910;7.724;2022-09-24T00:11:30;7.72;;;5.60;;
39264;SDS011;42646;51.910;7.724;2022-09-24T00:13:58;9.57;;;6.05;;
39264;SDS011;42646;51.910;7.724;2022-09-24T00:16:27;7.80;;;5.68;;
39264;SDS011;42646;51.910;7.724;2022-09-24T00:18:57;9.43;;;5.72;;
39264;SDS011;42646;51.910;7.724;2022-09-24T00:21:26;7.43;;;5.75;;
39264;SDS011;42646;51.910;7.724;2022-09-24T00:23:57;11.35;;;6.45;;
39264;SDS011;42646;51.910;7.724;2022-09-24T00:26:27;8.05;;;6.45;;
39264;SDS011;42646;51.910;7.724;2022-09-24T00:29:15;9.07;;;6.60;;
39264;SDS011;42646;51.910;7.724;2022-09-24T00:31:45;9.32;;;6.90;;
39264;SDS011;42646;51.910;7.724;2022-09-24T00:34:13;9.95;;;6.82;;
39264;SDS011;42646;51.910;7.724;2022-09-24T00:36:41;9.48;;;7.03;;
39264;SDS011;42646;51.910;7.724;2022-09-24T00:39:11;8.82;;;6.75;;
39264;SDS011;42646;51.910;7.724;2022-09-24T00:41:39;9.02;;;6.25;;
39264;SDS011;42646;51.910;7.724;2022-09-24T00:47:36;10.05;;;6.70;;
39264;SDS011;42646;51.910;7.724;2022-09-24T00:50:13;8.63;;;6.45;;
39264;SDS011;42646;51.910;7.724;2022-09-24T00:52:44;8.88;;;6.57;;
39264;SDS011;42646;51.910;7.724;2022-09-24T00:55:17;9.55;;;6.88;;
39264;SDS011;42646;51.910;7.724;2022-09-24T00:57:47;11.35;;;7.35;;
39264;SDS011;42646;51.910;7.724;2022-09-24T01:00:18;10.65;;;7.15;;
39264;SDS011;42646;51.910;7.724;2022-09-24T01:02:47;9.65;;;6.80;;
39264;SDS011;42646;51.910;7.724;2022-09-24T01:05:20;10.30;;;7.43;;
39264;SDS011;42646;51.910;7.724;2022-09-24T01:07:47;10.23;;;6.80;;
39264;SDS011;42646;51.910;7.724;2022-09-24T01:10:15;9.23;;;7.45;;
39264;SDS011;42646;51.910;7.724;2022-09-24T01:13:05;8.43;;;6.22;;
39264;SDS011;42646;51.910;7.724;2022-09-24T01:15:43;7.82;;;6.13;;
39264;SDS011;42646;51.910;7.724;2022-09-24T01:18:21;9.73;;;6.78;;
39264;SDS011;42646;51.910;7.724;2022-09-24T01:20:59;9.40;;;6.55;;
39264;SDS011;42646;51.910;7.724;2022-09-24T01:24:06;8.60;;;6.75;;
39264;SDS011;42646;51.910;7.724;2022-09-24T01:26:51;9.43;;;6.90;;
39264;SDS011;42646;51.910;7.724;2022-09-24T01:29:30;9.90;;;6.57;;
39264;SDS011;42646;51.910;7.724;2022-09-24T01:32:08;7.53;;;6.10;;
39264;SDS011;42646;51.910;7.724;2022-09-24T01:34:45;10.35;;;7.20;;
39264;SDS011;42646;51.910;7.724;2022-09-24T01:37:16;10.07;;;6.63;;
39264;SDS011;42646;51.910;7.724;2022-09-24T01:39:48;9.88;;;5.68;;
39264;SDS011;42646;51.910;7.724;2022-09-24T01:42:19;10.52;;;5.45;;
39264;SDS011;42646;51.910;7.724;2022-09-24T01:44:51;9.18;;;6.60;;
39264;SDS011;42646;51.910;7.724;2022-09-24T01:47:21;10.90;;;7.63;;
39264;SDS011;42646;51.910;7.724;2022-09-24T01:50:00;10.88;;;7.53;;
39264;SDS011;42646;51.910;7.724;2022-09-24T01:52:29;12.13;;;7.72;;
39264;SDS011;42646;51.910;7.724;2022-09-24T01:55:00;12.90;;;7.70;;
39264;SDS011;42646;51.910;7.724;2022-09-24T01:57:32;12.48;;;8.07;;
39264;SDS011;42646;51.910;7.724;2022-09-24T02:00:07;9.40;;;7.45;;
39264;SDS011;42646;51.910;7.724;2022-09-24T02:02:38;11.15;;;8.80;;
39264;SDS011;42646;51.910;7.724;2022-09-24T02:05:13;12.60;;;8.25;;
39264;SDS011;42646;51.910;7.724;2022-09-24T02:07:47;12.95;;;8.70;;
39264;SDS011;42646;51.910;7.724;2022-09-24T02:10:20;12.50;;;9.27;;
39264;SDS011;42646;51.910;7.724;2022-09-24T02:12:48;13.45;;;9.68;;
39264;SDS011;42646;51.910;7.724;2022-09-24T02:15:24;13.68;;;9.85;;
39264;SDS011;42646;51.910;7.724;2022-09-24T02:17:58;13.48;;;10.05;;
39264;SDS011;42646;51.910;7.724;2022-09-24T02:20:31;13.93;;;9.82;;
39264;SDS011;42646;51.910;7.724;2022-09-24T02:23:02;12.55;;;10.02;;
39264;SDS011;42646;51.910;7.724;2022-09-24T02:25:33;12.32;;;9.75;;
39264;SDS011;42646;51.910;7.724;2022-09-24T02:28:03;11.50;;;9.68;;
39264;SDS011;42646;51.910;7.724;2022-09-24T02:30:34;12.15;;;9.88;;
39264;SDS011;42646;51.910;7.724;2022-09-24T02:33:06;12.98;;;10.02;;
39264;SDS011;42646;51.910;7.724;2022-09-24T02:35:56;12.13;;;9.20;;
39264;SDS011;42646;51.910;7.724;2022-09-24T02:38:24;12.23;;;8.85;;
39264;SDS011;42646;51.910;7.724;2022-09-24T02:40:51;12.55;;;9.57;;
39264;SDS011;42646;51.910;7.724;2022-09-24T02:43:20;11.35;;;9.23;;
39264;SDS011;42646;51.910;7.724;2022-09-24T02:45:49;11.57;;;9.10;;
39264;SDS011;42646;51.910;7.724;2022-09-24T02:48:17;11.98;;;10.25;;
39264;SDS011;42646;51.910;7.724;2022-09-24T02:50:44;12.63;;;9.45;;
39264;SDS011;42646;51.910;7.724;2022-09-24T02:53:12;11.07;;;8.50;;
39264;SDS011;42646;51.910;7.724;2022-09-24T02:55:40;11.35;;;8.60;;
39264;SDS011;42646;51.910;7.724;2022-09-24T02:58:08;11.73;;;8.90;;
39264;SDS011;42646;51.910;7.724;2022-09-24T03:00:35;11.13;;;8.10;;
39264;SDS011;42646;51.910;7.724;2022-09-24T03:03:04;12.27;;;10.27;;
39264;SDS011;42646;51.910;7.724;2022-09-24T03:05:32;12.48;;;10.10;;
39264;SDS011;42646;51.910;7.724;2022-09-24T03:08:00;12.93;;;10.23;;
39264;SDS011;42646;51.910;7.724;2022-09-24T03:10:28;14.65;;;10.75;;
39264;SDS011;42646;51.910;7.724;2022-09-24T03:12:56;13.38;;;10.40;;
39264;SDS011;42646;51.910;7.724;2022-09-24T03:15:24;13.13;;;10.10;;
39264;SDS011;42646;51.910;7.724;2022-09-24T03:17:51;14.25;;;11.90;;
39264;SDS011;42646;51.910;7.724;2022-09-24T03:20:20;14.00;;;11.00;;
39264;SDS011;42646;51.910;7.724;2022-09-24T03:22:49;13.55;;;10.88;;
39264;SDS011;42646;51.910;7.724;2022-09-24T03:25:17;14.60;;;10.43;;
39264;SDS011;42646;51.910;7.724;2022-09-24T03:27:47;12.93;;;10.50;;
39264;SDS011;42646;51.910;7.724;2022-09-24T03:30:14;14.38;;;10.45;;
39264;SDS011;42646;51.910;7.724;2022-09-24T03:33:00;12.20;;;10.70;;
39264;SDS011;42646;51.910;7.724;2022-09-24T03:35:29;12.88;;;11.02;;
39264;SDS011;42646;51.910;7.724;2022-09-24T03:37:56;13.73;;;11.63;;
39264;SDS011;42646;51.910;7.724;2022-09-24T03:40:24;13.93;;;11.10;;
39264;SDS011;42646;51.910;7.724;2022-09-24T03:42:52;15.98;;;11.30;;
39264;SDS011;42646;51.910;7.724;2022-09-24T03:45:19;13.90;;;11.25;;
39264;SDS011;42646;51.910;7.724;2022-09-24T03:47:47;15.27;;;11.15;;
39264;SDS011;42646;51.910;7.724;2022-09-24T03:50:14;13.63;;;11.65;;
39264;SDS011;42646;51.910;7.724;2022-09-24T03:52:43;14.27;;;11.70;;
39264;SDS011;42646;51.910;7.724;2022-09-24T03:55:11;16.40;;;11.75;;
39264;SDS011;42646;51.910;7.724;2022-09-24T03:57:39;15.88;;;12.82;;
39264;SDS011;42646;51.910;7.724;2022-09-24T04:00:08;15.05;;;12.65;;
39264;SDS011;42646;51.910;7.724;2022-09-24T04:02:36;15.35;;;12.07;;
39264;SDS011;42646;51.910;7.724;2022-09-24T04:05:06;16.65;;;13.00;;
39264;SDS011;42646;51.910;7.724;2022-09-24T04:07:34;16.48;;;13.00;;
39264;SDS011;42646;51.910;7.724;2022-09-24T04:10:03;18.33;;;13.30;;
39264;SDS011;42646;51.910;7.724;2022-09-24T04:12:31;16.08;;;13.75;;
39264;SDS011;42646;51.910;7.724;2022-09-24T04:14:59;19.13;;;14.80;;
39264;SDS011;42646;51.910;7.724;2022-09-24T04:17:27;15.90;;;13.88;;
39264;SDS011;42646;51.910;7.724;2022-09-24T04:19:56;18.08;;;13.85;;
39264;SDS011;42646;51.910;7.724;2022-09-24T04:22:24;17.50;;;15.20;;
39264;SDS011;42646;51.910;7.724;2022-09-24T04:24:54;17.08;;;14.07;;
39264;SDS011;42646;51.910;7.724;2022-09-24T04:27:24;20.17;;;15.45;;
39264;SDS011;42646;51.910;7.724;2022-09-24T04:29:51;18.40;;;15.35;;
39264;SDS011;42646;51.910;7.724;2022-09-24T04:32:19;19.75;;;15.73;;
39264;SDS011;42646;51.910;7.724;2022-09-24T04:34:47;19.55;;;15.93;;
39264;SDS011;42646;51.910;7.724;2022-09-24T04:37:15;17.92;;;15.55;;
39264;SDS011;42646;51.910;7.724;2022-09-24T04:39:43;17.92;;;15.88;;
39264;SDS011;42646;51.910;7.724;2022-09-24T04:42:14;21.23;;;16.10;;
39264;SDS011;42646;51.910;7.724;2022-09-24T04:44:43;20.08;;;16.40;;
39264;SDS011;42646;51.910;7.724;2022-09-24T04:47:13;19.60;;;15.38;;
39264;SDS011;42646;51.910;7.724;2022-09-24T04:49:40;18.63;;;15.55;;
39264;SDS011;42646;51.910;7.724;2022-09-24T04:52:12;17.67;;;15.13;;
39264;SDS011;42646;51.910;7.724;2022-09-24T04:54:41;18.10;;;15.25;;
39264;SDS011;42646;51.910;7.724;2022-09-24T04:57:12;20.83;;;16.30;;
39264;SDS011;42646;51.910;7.724;2022-09-24T04:59:40;18.73;;;16.15;;
39264;SDS011;42646;51.910;7.724;2022-09-24T05:02:09;23.58;;;17.70;;
39264;SDS011;42646;51.910;7.724;2022-09-24T05:04:37;20.30;;;16.85;;
39264;SDS011;42646;51.910;7.724;2022-09-24T05:07:05;21.13;;;17.15;;
39264;SDS011;42646;51.910;7.724;2022-09-24T05:09:32;21.90;;;17.58;;
39264;SDS011;42646;51.910;7.724;2022-09-24T05:12:00;21.77;;;17.08;;
39264;SDS011;42646;51.910;7.724;2022-09-24T05:14:29;20.08;;;16.80;;
39264;SDS011;42646;51.910;7.724;2022-09-24T05:16:56;20.80;;;17.52;;
39264;SDS011;42646;51.910;7.724;2022-09-24T05:19:25;21.45;;;17.65;;
39264;SDS011;42646;51.910;7.724;2022-09-24T05:21:53;21.60;;;17.73;;
39264;SDS011;42646;51.910;7.724;2022-09-24T05:24:21;22.20;;;17.70;;
39264;SDS011;42646;51.910;7.724;2022-09-24T05:26:49;19.70;;;16.98;;
39264;SDS011;42646;51.910;7.724;2022-09-24T05:29:35;20.35;;;16.92;;
39264;SDS011;42646;51.910;7.724;2022-09-24T05:32:04;21.67;;;17.98;;
39264;SDS011;42646;51.910;7.724;2022-09-24T05:34:34;21.23;;;18.00;;
39264;SDS011;42646;51.910;7.724;2022-09-24T05:37:02;21.40;;;17.65;;
39264;SDS011;42646;51.910;7.724;2022-09-24T05:39:30;19.10;;;16.13;;
39264;SDS011;42646;51.910;7.724;2022-09-24T05:41:59;22.80;;;18.00;;
39264;SDS011;42646;51.910;7.724;2022-09-24T05:44:29;22.60;;;18.30;;
39264;SDS011;42646;51.910;7.724;2022-09-24T05:46:57;23.00;;;19.38;;
39264;SDS011;42646;51.910;7.724;2022-09-24T05:49:25;22.17;;;18.13;;
39264;SDS011;42646;51.910;7.724;2022-09-24T05:51:54;22.30;;;18.33;;
39264;SDS011;42646;51.910;7.724;2022-09-24T05:54:22;23.92;;;18.40;;
39264;SDS011;42646;51.910;7.724;2022-09-24T05:56:49;23.17;;;19.38;;
39264;SDS011;42646;51.910;7.724;2022-09-24T05:59:17;22.70;;;19.02;;
39264;SDS011;42646;51.910;7.724;2022-09-24T06:01:44;22.23;;;18.70;;
39264;SDS011;42646;51.910;7.724;2022-09-24T06:04:13;22.63;;;18.92;;
39264;SDS011;42646;51.910;7.724;2022-09-24T06:06:41;22.75;;;18.52;;
39264;SDS011;42646;51.910;7.724;2022-09-24T06:09:10;22.63;;;19.38;;
39264;SDS011;42646;51.910;7.724;2022-09-24T06:11:38;22.30;;;18.65;;
39264;SDS011;42646;51.910;7.724;2022-09-24T06:14:07;22.88;;;18.83;;
39264;SDS011;42646;51.910;7.724;2022-09-24T06:16:35;21.30;;;17.63;;
39264;SDS011;42646;51.910;7.724;2022-09-24T06:19:02;22.33;;;18.50;;
39264;SDS011;42646;51.910;7.724;2022-09-24T06:21:30;22.45;;;18.98;;
39264;SDS011;42646;51.910;7.724;2022-09-24T06:23:58;21.83;;;18.85;;
39264;SDS011;42646;51.910;7.724;2022-09-24T06:26:27;23.75;;;18.77;;
39264;SDS011;42646;51.910;7.724;2022-09-24T06:28:54;24.80;;;19.38;;
39264;SDS011;42646;51.910;7.724;2022-09-24T06:31:29;23.85;;;19.83;;
39264;SDS011;42646;51.910;7.724;2022-09-24T06:33:57;23.75;;;18.92;;
39264;SDS011;42646;51.910;7.724;2022-09-24T06:36:25;24.48;;;19.90;;
39264;SDS011;42646;51.910;7.724;2022-09-24T06:38:53;25.30;;;20.10;;
39264;SDS011;42646;51.910;7.724;2022-09-24T06:41:20;23.88;;;18.70;;
39264;SDS011;42646;51.910;7.724;2022-09-24T06:43:51;24.60;;;20.10;;
39264;SDS011;42646;51.910;7.724;2022-09-24T06:46:20;24.15;;;19.10;;
39264;SDS011;42646;51.910;7.724;2022-09-24T06:48:48;24.73;;;20.23;;
39264;SDS011;42646;51.910;7.724;2022-09-24T06:51:15;25.25;;;20.20;;
39264;SDS011;42646;51.910;7.724;2022-09-24T06:53:43;25.13;;;19.58;;
39264;SDS011;42646;51.910;7.724;2022-09-24T06:56:11;24.40;;;20.52;;
39264;SDS011;42646;51.910;7.724;2022-09-24T06:58:39;28.02;;;20.52;;
39264;SDS011;42646;51.910;7.724;2022-09-24T07:01:08;26.27;;;20.45;;
39264;SDS011;42646;51.910;7.724;2022-09-24T07:03:35;26.23;;;20.98;;
39264;SDS011;42646;51.910;7.724;2022-09-24T07:06:04;23.85;;;19.65;;
39264;SDS011;42646;51.910;7.724;2022-09-24T07:08:32;23.55;;;18.85;;
39264;SDS011;42646;51.910;7.724;2022-09-24T07:11:00;24.00;;;19.33;;
39264;SDS011;42646;51.910;7.724;2022-09-24T07:13:27;28.60;;;21.40;;
39264;SDS011;42646;51.910;7.724;2022-09-24T07:15:55;25.42;;;20.58;;
39264;SDS011;42646;51.910;7.724;2022-09-24T07:18:24;25.85;;;21.00;;
39264;SDS011;42646;51.910;7.724;2022-09-24T07:20:52;25.88;;;21.23;;
39264;SDS011;42646;51.910;7.724;2022-09-24T07:23:21;29.80;;;21.75;;
39264;SDS011;42646;51.910;7.724;2022-09-24T07:25:49;27.17;;;22.00;;
39264;SDS011;42646;51.910;7.724;2022-09-24T07:28:21;27.30;;;20.98;;
39264;SDS011;42646;51.910;7.724;2022-09-24T07:30:54;26.50;;;20.73;;
39264;SDS011;42646;51.910;7.724;2022-09-24T07:33:23;26.55;;;21.35;;
39264;SDS011;42646;51.910;7.724;2022-09-24T07:35:52;26.48;;;21.38;;
39264;SDS011;42646;51.910;7.724;2022-09-24T07:38:19;28.45;;;22.38;;
39264;SDS011;42646;51.910;7.724;2022-09-24T07:40:47;29.08;;;22.08;;
39264;SDS011;42646;51.910;7.724;2022-09-24T07:43:15;29.25;;;22.35;;
39264;SDS011;42646;51.910;7.724;2022-09-24T07:45:42;28.92;;;23.42;;
39264;SDS011;42646;51.910;7.724;2022-09-24T07:48:11;30.55;;;23.15;;
39264;SDS011;42646;51.910;7.724;2022-09-24T07:50:42;31.48;;;23.30;;
39264;SDS011;42646;51.910;7.724;2022-09-24T07:53:09;32.83;;;24.25;;
39264;SDS011;42646;51.910;7.724;2022-09-24T07:55:38;30.38;;;24.17;;
39264;SDS011;42646;51.910;7.724;2022-09-24T07:58:07;32.95;;;25.27;;
39264;SDS011;42646;51.910;7.724;2022-09-24T08:00:37;33.97;;;24.45;;
39264;SDS011;42646;51.910;7.724;2022-09-24T08:03:05;29.85;;;23.20;;
39264;SDS011;42646;51.910;7.724;2022-09-24T08:05:33;28.67;;;22.73;;
39264;SDS011;42646;51.910;7.724;2022-09-24T08:08:02;28.85;;;22.92;;
39264;SDS011;42646;51.910;7.724;2022-09-24T08:10:30;29.70;;;22.77;;
39264;SDS011;42646;51.910;7.724;2022-09-24T08:12:59;28.98;;;23.70;;
39264;SDS011;42646;51.910;7.724;2022-09-24T08:15:27;31.17;;;23.70;;
39264;SDS011;42646;51.910;7.724;2022-09-24T08:17:59;28.30;;;22.92;;
39264;SDS011;42646;51.910;7.724;2022-09-24T08:20:27;30.27;;;23.48;;
39264;SDS011;42646;51.910;7.724;2022-09-24T08:22:58;30.02;;;23.55;;
39264;SDS011;42646;51.910;7.724;2022-09-24T08:25:28;32.50;;;23.95;;
39264;SDS011;42646;51.910;7.724;2022-09-24T08:27:59;30.65;;;22.73;;
39264;SDS011;42646;51.910;7.724;2022-09-24T08:30:27;29.13;;;23.05;;
39264;SDS011;42646;51.910;7.724;2022-09-24T08:32:56;32.58;;;24.33;;
39264;SDS011;42646;51.910;7.724;2022-09-24T08:35:23;31.48;;;23.92;;
39264;SDS011;42646;51.910;7.724;2022-09-24T08:37:51;28.20;;;21.92;;
39264;SDS011;42646;51.910;7.724;2022-09-24T08:40:21;26.88;;;22.10;;
39264;SDS011;42646;51.910;7.724;2022-09-24T08:42:54;31.85;;;25.92;;
39264;SDS011;42646;51.910;7.724;2022-09-24T08:45:33;27.17;;;21.75;;
39264;SDS011;42646;51.910;7.724;2022-09-24T08:48:26;29.85;;;22.52;;
39264;SDS011;42646;51.910;7.724;2022-09-24T08:51:00;27.23;;;21.33;;
39264;SDS011;42646;51.910;7.724;2022-09-24T08:53:32;29.02;;;22.20;;
39264;SDS011;42646;51.910;7.724;2022-09-24T08:56:11;26.92;;;21.08;;
39264;SDS011;42646;51.910;7.724;2022-09-24T08:58:52;27.58;;;22.27;;
39264;SDS011;42646;51.910;7.724;2022-09-24T09:01:27;29.30;;;22.80;;
39264;SDS011;42646;51.910;7.724;2022-09-24T09:04:03;26.55;;;22.17;;
39264;SDS011;42646;51.910;7.724;2022-09-24T09:06:51;28.35;;;21.27;;
39264;SDS011;42646;51.910;7.724;2022-09-24T09:09:32;29.13;;;22.63;;
39264;SDS011;42646;51.910;7.724;2022-09-24T09:12:10;29.38;;;22.83;;
39264;SDS011;42646;51.910;7.724;2022-09-24T09:14:44;28.75;;;22.95;;
39264;SDS011;42646;51.910;7.724;2022-09-24T09:17:21;31.70;;;23.80;;
39264;SDS011;42646;51.910;7.724;2022-09-24T09:19:56;29.23;;;23.35;;
39264;SDS011;42646;51.910;7.724;2022-09-24T09:22:28;30.45;;;22.83;;
39264;SDS011;42646;51.910;7.724;2022-09-24T09:25:02;30.23;;;24.02;;
39264;SDS011;42646;51.910;7.724;2022-09-24T09:27:39;30.83;;;23.83;;
39264;SDS011;42646;51.910;7.724;2022-09-24T09:30:12;28.65;;;22.95;;
39264;SDS011;42646;51.910;7.724;2022-09-24T09:32:46;30.92;;;23.63;;
39264;SDS011;42646;51.910;7.724;2022-09-24T09:35:28;28.75;;;23.27;;
39264;SDS011;42646;51.910;7.724;2022-09-24T09:38:05;29.45;;;22.67;;
39264;SDS011;42646;51.910;7.724;2022-09-24T09:40:44;28.27;;;21.52;;
39264;SDS011;42646;51.910;7.724;2022-09-24T09:43:18;29.83;;;21.40;;
39264;SDS011;42646;51.910;7.724;2022-09-24T09:45:53;26.95;;;21.10;;
39264;SDS011;42646;51.910;7.724;2022-09-24T09:48:28;28.30;;;22.20;;
39264;SDS011;42646;51.910;7.724;2022-09-24T09:51:04;25.98;;;20.35;;
39264;SDS011;42646;51.910;7.724;2022-09-24T09:53:32;29.40;;;23.02;;
39264;SDS011;42646;51.910;7.724;2022-09-24T09:56:01;28.05;;;21.10;;
39264;SDS011;42646;51.910;7.724;2022-09-24T09:58:31;27.52;;;21.00;;
39264;SDS011;42646;51.910;7.724;2022-09-24T10:01:04;24.67;;;19.05;;
39264;SDS011;42646;51.910;7.724;2022-09-24T10:03:46;23.83;;;18.08;;
39264;SDS011;42646;51.910;7.724;2022-09-24T10:06:22;21.30;;;16.83;;
39264;SDS011;42646;51.910;7.724;2022-09-24T10:08:51;22.10;;;16.92;;
39264;SDS011;42646;51.910;7.724;2022-09-24T10:11:20;23.60;;;16.17;;
39264;SDS011;42646;51.910;7.724;2022-09-24T10:14:00;23.42;;;16.05;;
39264;SDS011;42646;51.910;7.724;2022-09-24T10:16:29;22.23;;;16.30;;
39264;SDS011;42646;51.910;7.724;2022-09-24T10:19:02;22.50;;;15.68;;
39264;SDS011;42646;51.910;7.724;2022-09-24T10:21:31;20.10;;;14.70;;
39264;SDS011;42646;51.910;7.724;2022-09-24T10:24:02;24.23;;;17.23;;
39264;SDS011;42646;51.910;7.724;2022-09-24T10:26:38;22.15;;;15.93;;
39264;SDS011;42646;51.910;7.724;2022-09-24T10:29:11;22.83;;;16.70;;
39264;SDS011;42646;51.910;7.724;2022-09-24T10:32:01;21.55;;;16.08;;
39264;SDS011;42646;51.910;7.724;2022-09-24T10:34:30;22.42;;;17.13;;
39264;SDS011;42646;51.910;7.724;2022-09-24T10:36:58;22.45;;;16.55;;
39264;SDS011;42646;51.910;7.724;2022-09-24T10:39:33;23.65;;;17.70;;
39264;SDS011;42646;51.910;7.724;2022-09-24T10:42:01;21.85;;;16.38;;
39264;SDS011;42646;51.910;7.724;2022-09-24T10:44:31;23.00;;;16.70;;
39264;SDS011;42646;51.910;7.724;2022-09-24T10:47:07;18.48;;;13.77;;
39264;SDS011;42646;51.910;7.724;2022-09-24T10:49:53;16.13;;;12.10;;
39264;SDS011;42646;51.910;7.724;2022-09-24T10:52:33;17.05;;;12.48;;
39264;SDS011;42646;51.910;7.724;2022-09-24T10:55:12;15.00;;;12.30;;
39264;SDS011;42646;51.910;7.724;2022-09-24T10:57:48;13.98;;;11.32;;
39264;SDS011;42646;51.910;7.724;2022-09-24T11:00:25;14.55;;;10.77;;
39264;SDS011;42646;51.910;7.724;2022-09-24T11:03:09;16.10;;;11.55;;
39264;SDS011;42646;51.910;7.724;2022-09-24T11:05:55;15.05;;;10.80;;
39264;SDS011;42646;51.910;7.724;2022-09-24T11:08:35;14.48;;;10.90;;
39264;SDS011;42646;51.910;7.724;2022-09-24T11:11:19;15.05;;;11.05;;
39264;SDS011;42646;51.910;7.724;2022-09-24T11:14:01;13.70;;;10.20;;
39264;SDS011;42646;51.910;7.724;2022-09-24T11:16:38;13.73;;;9.77;;
39264;SDS011;42646;51.910;7.724;2022-09-24T11:19:21;12.73;;;9.30;;
39264;SDS011;42646;51.910;7.724;2022-09-24T11:22:06;11.38;;;8.73;;
39264;SDS011;42646;51.910;7.724;2022-09-24T11:24:42;12.32;;;9.20;;
39264;SDS011;42646;51.910;7.724;2022-09-24T11:27:27;12.88;;;9.95;;
39264;SDS011;42646;51.910;7.724;2022-09-24T11:30:09;14.30;;;9.40;;
39264;SDS011;42646;51.910;7.724;2022-09-24T11:32:52;13.75;;;10.52;;
39264;SDS011;42646;51.910;7.724;2022-09-24T11:35:44;11.98;;;8.88;;
39264;SDS011;42646;51.910;7.724;2022-09-24T11:38:23;13.15;;;10.30;;
39264;SDS011;42646;51.910;7.724;2022-09-24T11:41:04;12.90;;;9.27;;
39264;SDS011;42646;51.910;7.724;2022-09-24T11:43:49;10.93;;;8.93;;
39264;SDS011;42646;51.910;7.724;2022-09-24T11:46:36;13.02;;;9.18;;
39264;SDS011;42646;51.910;7.724;2022-09-24T11:49:17;10.97;;;8.70;;
39264;SDS011;42646;51.910;7.724;2022-09-24T11:52:01;10.88;;;8.45;;
39264;SDS011;42646;51.910;7.724;2022-09-24T11:54:35;13.00;;;9.25;;
39264;SDS011;42646;51.910;7.724;2022-09-24T11:57:10;10.88;;;8.63;;
39264;SDS011;42646;51.910;7.724;2022-09-24T11:59:43;12.38;;;8.88;;
39264;SDS011;42646;51.910;7.724;2022-09-24T12:02:19;11.95;;;8.07;;
39264;SDS011;42646;51.910;7.724;2022-09-24T12:04:52;11.10;;;8.40;;
39264;SDS011;42646;51.910;7.724;2022-09-24T12:07:28;11.02;;;8.57;;
39264;SDS011;42646;51.910;7.724;2022-09-24T12:10:01;11.85;;;8.48;;
39264;SDS011;42646;51.910;7.724;2022-09-24T12:12:32;14.57;;;8.03;;
39264;SDS011;42646;51.910;7.724;2022-09-24T12:15:05;10.63;;;8.27;;
39264;SDS011;42646;51.910;7.724;2022-09-24T12:17:40;9.57;;;7.28;;
39264;SDS011;42646;51.910;7.724;2022-09-24T12:20:14;10.02;;;7.55;;
39264;SDS011;42646;51.910;7.724;2022-09-24T12:22:48;9.90;;;7.65;;
39264;SDS011;42646;51.910;7.724;2022-09-24T12:25:25;12.45;;;8.50;;
39264;SDS011;42646;51.910;7.724;2022-09-24T12:27:56;10.10;;;8.45;;
39264;SDS011;42646;51.910;7.724;2022-09-24T12:30:27;10.27;;;7.68;;
39264;SDS011;42646;51.910;7.724;2022-09-24T12:33:19;11.90;;;8.50;;
39264;SDS011;42646;51.910;7.724;2022-09-24T12:35:56;11.60;;;9.00;;
39264;SDS011;42646;51.910;7.724;2022-09-24T12:38:33;10.27;;;8.02;;
39264;SDS011;42646;51.910;7.724;2022-09-24T12:41:12;10.15;;;7.70;;
39264;SDS011;42646;51.910;7.724;2022-09-24T12:43:50;10.43;;;8.15;;
39264;SDS011;42646;51.910;7.724;2022-09-24T12:46:24;10.23;;;7.85;;
39264;SDS011;42646;51.910;7.724;2022-09-24T12:48:55;9.13;;;7.22;;
39264;SDS011;42646;51.910;7.724;2022-09-24T12:51:23;9.88;;;7.40;;
39264;SDS011;42646;51.910;7.724;2022-09-24T12:54:06;11.55;;;7.82;;
39264;SDS011;42646;51.910;7.724;2022-09-24T12:56:46;11.70;;;7.97;;
39264;SDS011;42646;51.910;7.724;2022-09-24T12:59:24;11.52;;;8.70;;
39264;SDS011;42646;51.910;7.724;2022-09-24T13:01:52;11.82;;;8.55;;
39264;SDS011;42646;51.910;7.724;2022-09-24T13:04:24;11.45;;;8.02;;
39264;SDS011;42646;51.910;7.724;2022-09-24T13:06:53;10.90;;;7.75;;
39264;SDS011;42646;51.910;7.724;2022-09-24T13:12:18;10.80;;;8.02;;
39264;SDS011;42646;51.910;7.724;2022-09-24T13:14:48;9.27;;;6.70;;
39264;SDS011;42646;51.910;7.724;2022-09-24T13:17:21;9.35;;;7.28;;
39264;SDS011;42646;51.910;7.724;2022-09-24T13:19:54;10.73;;;7.50;;
39264;SDS011;42646;51.910;7.724;2022-09-24T13:22:25;8.30;;;6.90;;
39264;SDS011;42646;51.910;7.724;2022-09-24T13:25:08;9.23;;;7.50;;
39264;SDS011;42646;51.910;7.724;2022-09-24T13:27:54;10.00;;;7.38;;
39264;SDS011;42646;51.910;7.724;2022-09-24T13:30:30;10.60;;;7.47;;
39264;SDS011;42646;51.910;7.724;2022-09-24T13:33:02;9.10;;;7.05;;
39264;SDS011;42646;51.910;7.724;2022-09-24T13:35:40;9.32;;;6.93;;
39264;SDS011;42646;51.910;7.724;2022-09-24T13:38:15;10.25;;;7.38;;
39264;SDS011;42646;51.910;7.724;2022-09-24T13:40:50;10.18;;;7.40;;
39264;SDS011;42646;51.910;7.724;2022-09-24T13:43:29;10.82;;;7.47;;
39264;SDS011;42646;51.910;7.724;2022-09-24T13:46:04;11.00;;;7.70;;
39264;SDS011;42646;51.910;7.724;2022-09-24T13:48:40;8.90;;;7.10;;
39264;SDS011;42646;51.910;7.724;2022-09-24T13:51:13;10.35;;;7.30;;
39264;SDS011;42646;51.910;7.724;2022-09-24T13:53:45;11.52;;;7.28;;
39264;SDS011;42646;51.910;7.724;2022-09-24T13:56:19;8.90;;;6.57;;
39264;SDS011;42646;51.910;7.724;2022-09-24T13:58:47;10.40;;;7.85;;
39264;SDS011;42646;51.910;7.724;2022-09-24T14:01:17;9.50;;;7.30;;
39264;SDS011;42646;51.910;7.724;2022-09-24T14:03:50;10.43;;;7.30;;
39264;SDS011;42646;51.910;7.724;2022-09-24T14:06:22;9.65;;;6.55;;
39264;SDS011;42646;51.910;7.724;2022-09-24T14:08:59;10.02;;;6.97;;
39264;SDS011;42646;51.910;7.724;2022-09-24T14:11:29;9.32;;;6.97;;
39264;SDS011;42646;51.910;7.724;2022-09-24T14:13:57;9.88;;;6.90;;
39264;SDS011;42646;51.910;7.724;2022-09-24T14:16:37;8.32;;;6.35;;
39264;SDS011;42646;51.910;7.724;2022-09-24T14:19:04;10.48;;;7.40;;
39264;SDS011;42646;51.910;7.724;2022-09-24T14:21:33;8.80;;;6.72;;
39264;SDS011;42646;51.910;7.724;2022-09-24T14:24:05;9.57;;;6.50;;
39264;SDS011;42646;51.910;7.724;2022-09-24T14:26:43;8.38;;;6.25;;
39264;SDS011;42646;51.910;7.724;2022-09-24T14:29:15;8.85;;;6.78;;
39264;SDS011;42646;51.910;7.724;2022-09-24T14:31:46;8.88;;;6.50;;
39264;SDS011;42646;51.910;7.724;2022-09-24T14:34:20;10.68;;;6.47;;
39264;SDS011;42646;51.910;7.724;2022-09-24T14:36:53;8.38;;;6.55;;
39264;SDS011;42646;51.910;7.724;2022-09-24T14:39:25;9.38;;;6.68;;
39264;SDS011;42646;51.910;7.724;2022-09-24T14:41:57;8.15;;;6.43;;
39264;SDS011;42646;51.910;7.724;2022-09-24T14:44:25;8.82;;;6.88;;
39264;SDS011;42646;51.910;7.724;2022-09-24T14:46:56;7.88;;;6.25;;
39264;SDS011;42646;51.910;7.724;2022-09-24T14:49:26;8.40;;;6.75;;
39264;SDS011;42646;51.910;7.724;2022-09-24T14:51:56;10.73;;;6.43;;
39264;SDS011;42646;51.910;7.724;2022-09-24T14:54:26;9.65;;;6.85;;
39264;SDS011;42646;51.910;7.724;2022-09-24T14:57:08;9.95;;;7.15;;
39264;SDS011;42646;51.910;7.724;2022-09-24T14:59:37;8.98;;;6.93;;
39264;SDS011;42646;51.910;7.724;2022-09-24T15:02:14;8.77;;;6.72;;
39264;SDS011;42646;51.910;7.724;2022-09-24T15:04:44;10.02;;;7.13;;